Time;durP1;ratioP1;P1;durP2;ratioP2;P2;SDS_P1;SDS_P2;PMS_P1;PMS_P2;Temp;Humidity;BMP_temperature;BMP_pressure;BME280_temperature;BME280_humidity;BME280_pressure;Samples;Min_cycle;Max_cycle;Signal;HPM_P1;HPM_P2
2023/08/10 00:01:01;;;;;;;0.10;0.10;;;18.60;70.50;;;;;;6125937;23;20014;-62
2023/08/10 00:03:28;;;;;;;0.10;0.10;;;18.50;71.50;;;;;;6100470;23;20217;-64
2023/08/10 00:05:54;;;;;;;0.40;0.28;;;18.50;70.50;;;;;;6099603;23;20021;-64
2023/08/10 00:08:20;;;;;;;;;;;18.50;70.50;;;;;;6127320;23;20016;-65
2023/08/10 00:11:05;;;;;;;0.10;0.10;;;18.50;70.20;;;;;;6125724;23;19983;-64
2023/08/10 00:13:31;;;;;;;0.10;0.10;;;18.40;70.40;;;;;;6126469;23;20014;-62
2023/08/10 00:15:57;;;;;;;;;;;18.40;70.50;;;;;;6100138;23;20020;-62
2023/08/10 00:18:23;;;;;;;9.77;0.57;;;18.30;70.20;;;;;;6149167;23;19917;-64
2023/08/10 00:20:49;;;;;;;0.10;0.10;;;18.40;70.40;;;;;;6099517;23;20022;-62
2023/08/10 00:23:15;;;;;;;0.10;0.10;;;18.30;70.70;;;;;;6126109;23;20010;-64
2023/08/10 00:25:42;;;;;;;0.10;0.10;;;18.30;70.80;;;;;;6125489;23;20386;-64
2023/08/10 00:28:09;;;;;;;0.43;0.43;;;18.30;70.70;;;;;;6100076;23;20085;-62
2023/08/10 00:30:35;;;;;;;0.10;0.10;;;18.30;70.60;;;;;;6099336;23;20009;-64
2023/08/10 00:33:01;;;;;;;0.10;0.10;;;18.30;70.80;;;;;;6076008;23;20010;-64
2023/08/10 00:35:27;;;;;;;0.55;0.30;;;18.30;70.80;;;;;;6099082;23;20018;-62
2023/08/10 00:37:53;;;;;;;0.10;0.10;;;18.20;70.70;;;;;;6125874;23;20420;-64
2023/08/10 00:40:19;;;;;;;0.10;0.10;;;18.20;70.70;;;;;;6099445;23;20014;-62
2023/08/10 00:42:45;;;;;;;0.10;0.10;;;18.20;70.70;;;;;;6126467;23;20018;-61
2023/08/10 00:45:11;;;;;;;0.10;0.10;;;18.20;70.50;;;;;;6099264;23;20387;-64
2023/08/10 00:47:38;;;;;;;0.10;0.10;;;18.20;70.60;;;;;;6126443;23;20021;-61
2023/08/10 00:50:05;;;;;;;0.10;0.10;;;18.10;70.60;;;;;;6099841;23;20077;-61
2023/08/10 00:52:33;;;;;;;0.20;0.20;;;18.00;70.60;;;;;;6099751;23;20037;-61
2023/08/10 00:55:01;;;;;;;0.10;0.10;;;18.00;70.80;;;;;;6099603;23;20093;-62
2023/08/10 00:57:27;;;;;;;0.10;0.10;;;17.90;71.00;;;;;;6125538;23;20081;-62
2023/08/10 00:59:54;;;;;;;0.10;0.10;;;17.90;70.80;;;;;;6099987;23;20384;-63
2023/08/10 01:02:21;;;;;;;0.10;0.10;;;17.80;71.70;;;;;;6099623;23;20013;-62
2023/08/10 01:04:47;;;;;;;0.13;0.13;;;17.80;71.80;;;;;;6099719;23;20089;-62
2023/08/10 01:07:37;;;;;;;0.10;0.10;;;17.70;71.90;;;;;;6125663;23;20010;-62
2023/08/10 01:11:00;;;;;;;0.05;0.05;;;17.80;71.60;;;;;;6099838;23;20010;-63
2023/08/10 01:13:50;;;;;;;0.20;0.20;;;17.80;71.40;;;;;;6125617;23;20018;-63
2023/08/10 01:16:16;;;;;;;0.10;0.10;;;17.70;71.40;;;;;;6125117;23;20025;-63
2023/08/10 01:18:43;;;;;;;0.10;0.10;;;17.70;71.50;;;;;;6125746;23;20045;-62
2023/08/10 01:21:47;;;;;;;0.25;0.25;;;17.60;71.90;;;;;;6125484;23;20093;-64
2023/08/10 01:24:42;;;;;;;0.00;0.00;;;17.70;71.90;;;;;;6125306;23;20018;-63
2023/08/10 01:27:12;;;;;;;1.17;0.28;;;17.60;72.10;;;;;;6099170;23;20030;-64
2023/08/10 01:29:38;;;;;;;0.10;0.10;;;17.50;72.60;;;;;;6125534;23;20064;-63
2023/08/10 01:32:05;;;;;;;0.25;0.25;;;17.50;72.10;;;;;;6099427;23;20455;-62
2023/08/10 01:34:31;;;;;;;1.20;0.47;;;17.50;72.10;;;;;;6125316;23;20446;-62
2023/08/10 01:36:57;;;;;;;0.17;0.17;;;17.50;72.50;;;;;;6124729;23;20321;-63
2023/08/10 01:39:23;;;;;;;;;;;17.50;72.40;;;;;;6126206;23;20523;-63
2023/08/10 01:41:49;;;;;;;0.10;0.10;;;17.60;72.10;;;;;;6123496;23;19944;-61
2023/08/10 01:44:15;;;;;;;0.30;0.20;;;17.50;72.00;;;;;;6125374;23;20504;-62
2023/08/10 01:46:45;;;;;;;0.10;0.10;;;17.50;72.10;;;;;;6075071;23;20018;-62
2023/08/10 01:49:12;;;;;;;0.10;0.10;;;17.50;72.20;;;;;;6099664;23;20021;-62
2023/08/10 01:51:41;;;;;;;0.10;0.10;;;17.50;72.10;;;;;;6125364;23;20014;-63
2023/08/10 01:54:10;;;;;;;0.10;0.10;;;17.50;72.20;;;;;;6099543;23;20014;-62
2023/08/10 01:56:36;;;;;;;2.90;0.10;;;17.50;72.30;;;;;;6099113;23;20013;-63
2023/08/10 01:59:02;;;;;;;0.10;0.10;;;17.50;72.50;;;;;;6125544;23;20020;-62
2023/08/10 02:01:28;;;;;;;0.00;0.00;;;17.50;72.60;;;;;;6125300;23;20014;-63
2023/08/10 02:03:54;;;;;;;0.10;0.10;;;17.50;72.50;;;;;;6099544;23;20459;-64
2023/08/10 02:06:20;;;;;;;0.10;0.10;;;17.50;72.60;;;;;;6124960;23;20025;-62
2023/08/10 02:08:46;;;;;;;0.10;0.10;;;17.40;72.60;;;;;;6127381;23;20060;-62
2023/08/10 02:11:12;;;;;;;0.10;0.10;;;17.40;72.80;;;;;;6126962;23;20025;-61
2023/08/10 02:13:38;;;;;;;0.75;0.20;;;17.40;72.80;;;;;;6101254;23;20325;-62
2023/08/10 02:16:04;;;;;;;0.10;0.10;;;17.40;72.70;;;;;;6126722;23;20351;-63
2023/08/10 02:18:30;;;;;;;;;;;17.40;72.80;;;;;;6127852;23;20010;-62
2023/08/10 02:20:56;;;;;;;0.10;0.10;;;17.30;72.60;;;;;;6123707;23;20007;-62
2023/08/10 02:23:23;;;;;;;0.10;0.10;;;17.30;72.80;;;;;;6101518;23;20017;-64
2023/08/10 02:25:49;;;;;;;0.10;0.10;;;17.30;73.00;;;;;;6100462;23;20404;-61
2023/08/10 02:28:15;;;;;;;0.10;0.10;;;17.20;73.00;;;;;;6101413;23;20033;-63
2023/08/10 02:30:41;;;;;;;0.10;0.10;;;17.20;73.30;;;;;;6126623;23;20010;-63
2023/08/10 02:33:07;;;;;;;0.45;0.25;;;17.10;73.20;;;;;;6127114;23;20325;-63
2023/08/10 02:35:33;;;;;;;0.10;0.10;;;17.10;73.20;;;;;;6126254;23;20077;-61
2023/08/10 02:37:59;;;;;;;0.10;0.10;;;17.10;73.20;;;;;;6127020;23;20065;-62
2023/08/10 02:40:25;;;;;;;0.00;0.00;;;17.00;73.00;;;;;;6126529;23;20440;-61
2023/08/10 02:42:51;;;;;;;0.10;0.10;;;17.00;73.10;;;;;;6126954;23;20061;-63
2023/08/10 02:45:17;;;;;;;0.10;0.10;;;17.00;73.00;;;;;;6100549;23;20014;-63
2023/08/10 02:47:43;;;;;;;;;;;17.00;72.90;;;;;;6128018;23;20381;-62
2023/08/10 02:50:11;;;;;;;0.10;0.10;;;16.90;72.80;;;;;;6126985;23;19917;-63
2023/08/10 02:52:37;;;;;;;0.47;0.32;;;16.90;73.00;;;;;;6101296;23;20014;-63
2023/08/10 02:55:04;;;;;;;;;;;16.80;73.10;;;;;;6127119;23;20018;-62
2023/08/10 02:57:30;;;;;;;0.80;0.80;;;16.80;72.50;;;;;;6100869;23;19909;-63
2023/08/10 02:59:56;;;;;;;0.10;0.10;;;16.70;72.70;;;;;;6101107;23;20017;-63
2023/08/10 03:02:22;;;;;;;;;;;16.70;73.40;;;;;;6127454;23;20064;-63
2023/08/10 03:04:48;;;;;;;0.10;0.10;;;16.70;73.40;;;;;;6149794;23;19992;-63
2023/08/10 03:07:14;;;;;;;0.30;0.20;;;16.60;73.40;;;;;;6126686;23;20014;-62
2023/08/10 03:09:43;;;;;;;0.00;0.00;;;16.60;73.60;;;;;;6126822;23;20025;-62
2023/08/10 03:12:09;;;;;;;0.10;0.10;;;16.60;73.80;;;;;;6126682;23;20010;-62
2023/08/10 03:14:36;;;;;;;0.00;0.00;;;16.50;73.80;;;;;;6126695;23;20431;-62
2023/08/10 03:17:03;;;;;;;0.10;0.10;;;16.50;73.80;;;;;;6126606;23;20010;-63
2023/08/10 03:19:29;;;;;;;0.00;0.00;;;16.40;73.60;;;;;;6094977;23;20436;-61
2023/08/10 03:21:55;;;;;;;0.10;0.10;;;16.40;73.90;;;;;;6096846;23;20079;-62
2023/08/10 03:24:21;;;;;;;0.00;0.00;;;16.40;73.90;;;;;;6097531;23;20022;-62
2023/08/10 03:26:47;;;;;;;0.10;0.10;;;16.30;74.00;;;;;;6096983;23;20010;-62
2023/08/10 03:29:13;;;;;;;0.10;0.10;;;16.30;74.00;;;;;;6097301;23;20066;-63
2023/08/10 03:31:39;;;;;;;0.22;0.15;;;16.30;73.90;;;;;;6097075;23;20040;-62
2023/08/10 03:34:05;;;;;;;0.10;0.10;;;16.30;74.00;;;;;;6071699;23;20424;-63
2023/08/10 03:36:32;;;;;;;0.10;0.10;;;16.20;73.80;;;;;;6071305;23;20013;-63
2023/08/10 03:38:58;;;;;;;0.10;0.10;;;16.10;73.60;;;;;;6097205;23;20508;-63
2023/08/10 03:41:24;;;;;;;0.10;0.10;;;15.90;73.40;;;;;;6096904;23;20193;-63
2023/08/10 03:43:50;;;;;;;0.10;0.10;;;15.90;73.70;;;;;;6097001;23;20448;-62
2023/08/10 03:46:16;;;;;;;0.10;0.10;;;15.80;73.50;;;;;;6096652;23;20022;-63
2023/08/10 03:48:42;;;;;;;0.10;0.10;;;15.80;73.60;;;;;;6097161;23;20424;-62
2023/08/10 03:51:08;;;;;;;0.25;0.22;;;15.80;73.40;;;;;;6096462;23;20022;-63
2023/08/10 03:53:34;;;;;;;0.10;0.10;;;15.80;73.50;;;;;;6096816;23;20023;-61
2023/08/10 03:56:01;;;;;;;0.10;0.10;;;15.80;73.30;;;;;;6096434;23;20025;-62
2023/08/10 03:58:27;;;;;;;0.10;0.10;;;15.80;73.20;;;;;;6071498;23;20500;-63
2023/08/10 04:00:53;;;;;;;0.10;0.10;;;15.90;73.10;;;;;;6096209;23;20433;-62
2023/08/10 04:03:20;;;;;;;0.10;0.10;;;15.90;73.00;;;;;;6096969;23;20030;-62
2023/08/10 04:05:46;;;;;;;0.05;0.05;;;15.90;73.10;;;;;;6096609;23;20508;-62
2023/08/10 04:08:13;;;;;;;0.10;0.10;;;15.90;73.40;;;;;;6071603;23;20058;-63
2023/08/10 04:10:39;;;;;;;0.10;0.10;;;16.00;73.10;;;;;;6096222;23;20376;-63
2023/08/10 04:13:05;;;;;;;0.20;0.20;;;16.10;72.90;;;;;;6071366;23;20017;-63
2023/08/10 04:15:32;;;;;;;0.47;0.20;;;16.10;73.70;;;;;;6070480;23;20015;-62
2023/08/10 04:17:58;;;;;;;0.30;0.28;;;16.10;72.60;;;;;;6071240;23;20391;-62
2023/08/10 04:20:24;;;;;;;0.10;0.10;;;16.20;72.50;;;;;;6087010;23;20400;-62
2023/08/10 04:22:51;;;;;;;;;;;16.20;72.30;;;;;;6100545;23;20018;-61
2023/08/10 04:25:17;;;;;;;0.77;0.35;;;16.20;72.60;;;;;;6125088;23;20286;-62
2023/08/10 04:27:43;;;;;;;0.30;0.20;;;16.30;73.20;;;;;;6126641;23;20036;-62
2023/08/10 04:30:12;;;;;;;0.22;0.13;;;16.30;73.10;;;;;;6099565;23;20101;-62
2023/08/10 04:32:38;;;;;;;4.07;0.75;;;16.30;73.20;;;;;;6126329;23;20014;-63
2023/08/10 04:35:06;;;;;;;0.20;0.20;;;16.40;73.10;;;;;;6125541;23;20026;-63
2023/08/10 04:37:32;;;;;;;0.10;0.10;;;16.50;73.00;;;;;;6099734;23;20475;-62
2023/08/10 04:39:58;;;;;;;0.25;0.20;;;16.50;73.00;;;;;;6100100;23;20036;-61
2023/08/10 04:42:24;;;;;;;0.10;0.10;;;16.60;73.10;;;;;;6099654;23;20022;-63
2023/08/10 04:44:50;;;;;;;0.10;0.10;;;16.50;73.00;;;;;;6125784;23;20340;-64
2023/08/10 04:47:16;;;;;;;0.10;0.10;;;16.60;72.90;;;;;;6099408;23;20037;-62
2023/08/10 04:49:42;;;;;;;0.10;0.10;;;16.60;72.90;;;;;;6125895;23;20010;-63
2023/08/10 04:52:08;;;;;;;0.10;0.10;;;16.60;72.90;;;;;;6125151;23;20093;-61
2023/08/10 04:54:34;;;;;;;0.00;0.00;;;16.70;72.90;;;;;;6075530;23;20060;-63
2023/08/10 04:57:00;;;;;;;0.32;0.10;;;16.70;72.80;;;;;;6148735;23;20498;-63
2023/08/10 04:59:26;;;;;;;0.65;0.40;;;16.70;73.00;;;;;;6100067;23;20060;-64
2023/08/10 05:01:52;;;;;;;0.20;0.20;;;16.80;72.90;;;;;;6125642;23;20010;-62
2023/08/10 05:04:19;;;;;;;0.30;0.30;;;16.80;72.80;;;;;;6125739;23;20014;-64
2023/08/10 05:06:45;;;;;;;1.55;0.38;;;16.90;72.70;;;;;;6125390;23;20045;-62
2023/08/10 05:09:11;;;;;;;0.22;0.20;;;16.90;72.50;;;;;;6125690;23;20040;-63
2023/08/10 05:11:38;;;;;;;0.25;0.22;;;16.90;72.40;;;;;;6125481;23;20013;-62
2023/08/10 05:14:04;;;;;;;0.40;0.40;;;17.00;72.30;;;;;;6125496;23;20018;-63
2023/08/10 05:16:30;;;;;;;;;;;17.00;72.30;;;;;;6075610;23;20392;-63
2023/08/10 05:18:56;;;;;;;0.10;0.10;;;17.10;72.60;;;;;;6125645;23;19987;-62
2023/08/10 05:21:22;;;;;;;0.20;0.20;;;17.00;72.50;;;;;;6125148;23;20045;-64
2023/08/10 05:23:48;;;;;;;0.93;0.15;;;17.10;72.70;;;;;;6125507;23;20014;-62
2023/08/10 05:26:14;;;;;;;1.05;0.88;;;17.20;72.30;;;;;;6124703;23;20013;-61
2023/08/10 05:28:40;;;;;;;0.90;0.57;;;17.30;72.10;;;;;;6125650;23;20010;-64
2023/08/10 05:31:06;;;;;;;0.10;0.10;;;17.30;72.20;;;;;;6125178;23;20060;-63
2023/08/10 05:33:32;;;;;;;0.32;0.32;;;17.40;72.00;;;;;;6075602;23;20067;-63
2023/08/10 05:35:59;;;;;;;0.32;0.25;;;17.50;72.20;;;;;;6125123;23;20021;-64
2023/08/10 05:38:26;;;;;;;0.28;0.20;;;17.50;72.10;;;;;;6099497;23;20037;-62
2023/08/10 05:40:52;;;;;;;0.22;0.22;;;17.60;72.00;;;;;;6125081;23;20024;-62
2023/08/10 05:43:18;;;;;;;;;;;17.60;71.80;;;;;;6101565;23;20018;-61
2023/08/10 05:45:44;;;;;;;0.20;0.10;;;17.70;71.90;;;;;;6127018;23;19951;-61
2023/08/10 05:48:12;;;;;;;0.10;0.10;;;17.70;71.60;;;;;;6101717;23;20030;-63
2023/08/10 05:50:38;;;;;;;0.20;0.20;;;17.80;71.50;;;;;;6101162;23;20010;-61
2023/08/10 05:53:06;;;;;;;0.25;0.25;;;17.80;71.10;;;;;;6101663;23;20340;-63
2023/08/10 05:55:33;;;;;;;0.20;0.20;;;17.80;72.00;;;;;;6126578;23;20034;-61
2023/08/10 05:58:00;;;;;;;0.13;0.13;;;17.80;72.00;;;;;;6101567;23;20021;-63
2023/08/10 06:00:27;;;;;;;0.10;0.10;;;17.90;71.50;;;;;;6076894;23;20018;-63
2023/08/10 06:02:54;;;;;;;0.05;0.05;;;18.00;71.30;;;;;;6101749;23;20018;-61
2023/08/10 06:05:20;;;;;;;0.10;0.10;;;18.10;71.80;;;;;;6100909;23;20021;-63
2023/08/10 06:07:47;;;;;;;0.20;0.20;;;18.20;71.70;;;;;;6077626;23;20348;-62
2023/08/10 06:10:32;;;;;;;0.20;0.20;;;18.20;71.10;;;;;;6101108;23;20018;-63
2023/08/10 06:12:58;;;;;;;0.10;0.10;;;18.30;71.80;;;;;;6127348;23;20470;-62
2023/08/10 06:15:24;;;;;;;0.10;0.10;;;18.20;71.70;;;;;;6100449;23;20022;-63
2023/08/10 06:17:51;;;;;;;0.20;0.20;;;18.20;71.60;;;;;;6127256;23;20503;-63
2023/08/10 06:20:21;;;;;;;0.85;0.25;;;18.20;71.80;;;;;;6100446;23;20014;-63
2023/08/10 06:22:48;;;;;;;0.00;0.00;;;18.20;71.60;;;;;;6127881;23;20025;-63
2023/08/10 06:25:15;;;;;;;0.60;0.32;;;18.30;71.30;;;;;;6126244;23;20018;-62
2023/08/10 06:27:41;;;;;;;0.10;0.10;;;18.30;71.10;;;;;;6101230;23;20014;-62
2023/08/10 06:30:08;;;;;;;0.10;0.10;;;18.30;71.30;;;;;;6126678;23;20335;-62
2023/08/10 06:32:36;;;;;;;0.10;0.10;;;18.30;71.30;;;;;;6077422;23;20029;-64
2023/08/10 06:35:04;;;;;;;0.85;0.63;;;18.30;71.40;;;;;;6101130;23;20041;-62
2023/08/10 06:37:30;;;;;;;0.38;0.38;;;18.30;71.50;;;;;;6127125;23;20009;-64
2023/08/10 06:39:56;;;;;;;0.10;0.10;;;18.30;71.60;;;;;;6101527;23;20297;-64
2023/08/10 06:42:22;;;;;;;0.10;0.10;;;18.20;72.50;;;;;;6126959;23;20297;-64
2023/08/10 06:44:48;;;;;;;0.10;0.10;;;18.20;72.30;;;;;;6100955;23;20428;-63
2023/08/10 06:47:14;;;;;;;0.32;0.20;;;18.30;72.30;;;;;;6126305;23;20013;-62
2023/08/10 06:49:40;;;;;;;0.10;0.10;;;18.30;72.00;;;;;;6101234;23;20021;-63
2023/08/10 06:52:07;;;;;;;0.65;0.35;;;18.50;71.60;;;;;;6126980;23;20014;-64
2023/08/10 06:54:33;;;;;;;0.40;0.40;;;18.60;71.20;;;;;;6126525;23;20010;-62
2023/08/10 06:57:00;;;;;;;;;;;18.70;71.40;;;;;;6127374;23;20014;-63
2023/08/10 06:59:26;;;;;;;0.20;0.20;;;18.70;71.50;;;;;;6149917;23;19948;-64
2023/08/10 07:01:52;;;;;;;0.40;0.28;;;18.70;71.10;;;;;;6100720;23;20090;-64
2023/08/10 07:04:18;;;;;;;0.10;0.10;;;18.70;71.60;;;;;;6100901;23;20445;-64
2023/08/10 07:06:44;;;;;;;0.60;0.47;;;18.70;71.70;;;;;;6100355;23;20018;-64
2023/08/10 07:09:10;;;;;;;0.10;0.10;;;18.80;71.60;;;;;;6100898;23;20018;-63
2023/08/10 07:11:36;;;;;;;0.20;0.20;;;18.80;71.30;;;;;;6126751;23;20416;-64
2023/08/10 07:14:03;;;;;;;0.80;0.80;;;18.90;70.70;;;;;;6126609;23;20029;-64
2023/08/10 07:16:29;;;;;;;0.10;0.10;;;19.10;70.30;;;;;;6126337;23;20077;-64
2023/08/10 07:18:55;;;;;;;0.10;0.10;;;19.30;70.30;;;;;;6126773;23;20431;-62
2023/08/10 07:21:22;;;;;;;0.10;0.10;;;19.50;69.70;;;;;;6126231;23;20022;-62
2023/08/10 07:23:48;;;;;;;1.75;0.85;;;19.70;68.90;;;;;;6127291;23;20020;-62
2023/08/10 07:26:15;;;;;;;0.10;0.10;;;19.90;68.40;;;;;;6125994;23;20435;-62
2023/08/10 07:28:41;;;;;;;0.10;0.10;;;20.20;67.50;;;;;;6100854;23;20096;-63
2023/08/10 07:31:07;;;;;;;0.20;0.20;;;20.30;67.10;;;;;;6126156;23;20014;-63
2023/08/10 07:33:32;;;;;;;0.10;0.10;;;20.40;66.70;;;;;;6126709;23;20014;-64
2023/08/10 07:35:59;;;;;;;0.10;0.10;;;20.50;66.30;;;;;;6125784;23;20014;-63
2023/08/10 07:38:25;;;;;;;0.50;0.50;;;20.60;66.20;;;;;;6076790;23;20455;-64
2023/08/10 07:40:51;;;;;;;0.10;0.10;;;20.70;65.20;;;;;;6126055;23;20014;-63
2023/08/10 07:43:17;;;;;;;0.10;0.10;;;20.90;65.40;;;;;;6126291;23;20017;-63
2023/08/10 07:45:43;;;;;;;0.10;0.10;;;21.10;64.90;;;;;;6125826;23;20010;-63
2023/08/10 07:48:09;;;;;;;0.20;0.20;;;21.40;64.20;;;;;;6076631;23;20061;-63
2023/08/10 07:50:35;;;;;;;;;;;21.70;63.30;;;;;;6126456;23;20017;-63
2023/08/10 07:53:03;;;;;;;0.30;0.20;;;22.10;64.60;;;;;;6126362;23;20339;-63
2023/08/10 07:55:29;;;;;;;0.20;0.13;;;22.50;61.50;;;;;;6099282;23;20024;-62
2023/08/10 07:57:56;;;;;;;0.20;0.20;;;22.70;60.40;;;;;;6126302;23;20010;-63
2023/08/10 08:00:22;;;;;;;0.03;0.03;;;23.00;59.30;;;;;;6099854;23;20010;-62
2023/08/10 08:02:51;;;;;;;0.20;0.20;;;23.20;59.30;;;;;;6126805;23;20013;-63
2023/08/10 08:05:17;;;;;;;0.20;0.20;;;23.40;58.80;;;;;;6125277;23;20069;-63
2023/08/10 08:07:44;;;;;;;0.17;0.17;;;23.50;58.30;;;;;;6126868;23;20440;-63
2023/08/10 08:10:10;;;;;;;0.30;0.30;;;23.60;57.00;;;;;;6099751;23;20340;-63
2023/08/10 08:12:37;;;;;;;0.28;0.10;;;23.70;56.60;;;;;;6126600;23;20014;-63
2023/08/10 08:15:03;;;;;;;0.20;0.20;;;23.80;56.20;;;;;;6099736;23;20072;-63
2023/08/10 08:18:26;;;;;;;0.35;0.32;;;23.90;55.50;;;;;;6126301;23;20092;-63
2023/08/10 08:20:52;;;;;;;0.52;0.40;;;24.30;55.00;;;;;;6125363;23;20018;-62
2023/08/10 08:23:18;;;;;;;;;;;24.60;53.70;;;;;;6126495;23;20013;-63
2023/08/10 08:25:44;;;;;;;1.35;0.60;;;24.90;54.40;;;;;;6148248;23;20004;-62
2023/08/10 08:28:10;;;;;;;0.10;0.10;;;25.10;51.60;;;;;;6126482;23;20360;-62
2023/08/10 08:30:36;;;;;;;0.32;0.32;;;25.10;52.00;;;;;;6125518;23;20013;-63
2023/08/10 08:33:03;;;;;;;0.10;0.10;;;25.20;51.70;;;;;;6125914;23;20010;-64
2023/08/10 08:35:29;;;;;;;0.10;0.10;;;25.30;51.30;;;;;;6125159;23;20522;-63
2023/08/10 08:37:55;;;;;;;0.45;0.40;;;25.30;50.90;;;;;;6125933;23;20016;-63
2023/08/10 08:40:22;;;;;;;0.57;0.35;;;25.30;50.80;;;;;;6125464;23;20017;-62
2023/08/10 08:42:49;;;;;;;0.90;0.60;;;25.20;50.50;;;;;;6099817;23;20498;-63
2023/08/10 08:45:16;;;;;;;0.20;0.20;;;25.40;49.20;;;;;;6125201;23;20404;-63
2023/08/10 08:48:03;;;;;;;0.30;0.30;;;25.30;49.30;;;;;;6100347;23;20010;-62
2023/08/10 08:50:29;;;;;;;;;;;26.20;47.60;;;;;;6100408;23;20413;-64
2023/08/10 08:52:56;;;;;;;0.10;0.10;;;26.70;47.80;;;;;;6148817;23;19917;-63
2023/08/10 08:55:22;;;;;;;0.10;0.10;;;26.90;46.00;;;;;;6074830;23;20013;-64
2023/08/10 08:57:49;;;;;;;0.17;0.17;;;27.00;46.60;;;;;;6126386;23;20017;-63
2023/08/10 09:00:16;;;;;;;0.52;0.52;;;26.90;45.40;;;;;;6125165;23;20068;-63
2023/08/10 09:02:42;;;;;;;0.40;0.30;;;26.70;44.10;;;;;;6099956;23;20503;-63
2023/08/10 09:05:08;;;;;;;0.20;0.20;;;26.50;45.40;;;;;;6099330;23;20018;-63
2023/08/10 09:07:35;;;;;;;0.20;0.20;;;26.50;44.90;;;;;;6100151;23;20033;-63
2023/08/10 09:10:02;;;;;;;0.20;0.20;;;26.30;43.80;;;;;;6125782;23;20020;-64
2023/08/10 09:12:48;;;;;;;0.10;0.10;;;26.20;44.60;;;;;;6099584;23;20013;-63
2023/08/10 09:15:18;;;;;;;0.20;0.20;;;26.10;44.80;;;;;;6124953;23;20348;-63
2023/08/10 09:18:06;;;;;;;0.20;0.20;;;26.00;45.00;;;;;;6099805;23;20016;-64
2023/08/10 09:20:32;;;;;;;0.13;0.13;;;26.00;45.50;;;;;;6125130;23;20025;-63
2023/08/10 09:25:46;;;;;;;0.22;0.22;;;25.90;44.70;;;;;;6103246;23;20022;-63
2023/08/10 09:28:12;;;;;;;0.40;0.40;;;25.80;44.90;;;;;;6099796;23;20042;-63
2023/08/10 09:30:38;;;;;;;0.40;0.40;;;25.90;45.40;;;;;;6125283;23;20344;-63
2023/08/10 09:33:05;;;;;;;0.20;0.20;;;25.90;45.20;;;;;;6125734;23;20399;-63
2023/08/10 09:35:31;;;;;;;0.20;0.20;;;25.80;44.20;;;;;;6098815;23;20014;-63
2023/08/10 09:38:19;;;;;;;0.30;0.20;;;25.80;43.40;;;;;;6099611;23;20064;-63
2023/08/10 09:40:45;;;;;;;0.35;0.20;;;25.70;43.80;;;;;;6125054;23;20022;-63
2023/08/10 09:43:11;;;;;;;0.38;0.30;;;26.00;45.80;;;;;;6099500;23;20040;-64
2023/08/10 09:45:37;;;;;;;0.30;0.30;;;27.90;43.10;;;;;;6098825;23;20014;-64
2023/08/10 09:48:11;;;;;;;0.20;0.20;;;29.30;40.70;;;;;;6099660;23;20025;-64
2023/08/10 09:50:37;;;;;;;0.10;0.10;;;29.40;38.40;;;;;;6125039;23;20033;-64
2023/08/10 09:53:03;;;;;;;0.20;0.20;;;29.10;38.00;;;;;;6125302;23;20033;-64
2023/08/10 09:55:30;;;;;;;0.22;0.17;;;28.80;38.30;;;;;;6124465;23;20020;-64
2023/08/10 09:57:56;;;;;;;0.15;0.15;;;28.40;39.40;;;;;;6098957;23;20018;-64
2023/08/10 10:00:22;;;;;;;0.40;0.40;;;28.00;39.50;;;;;;6098947;23;20349;-64
2023/08/10 10:02:49;;;;;;;0.20;0.20;;;27.70;39.50;;;;;;6125965;23;20336;-63
2023/08/10 10:05:17;;;;;;;0.30;0.30;;;27.60;40.30;;;;;;6098209;23;20103;-64
2023/08/10 10:07:44;;;;;;;0.77;0.70;;;27.70;40.40;;;;;;6125957;23;20018;-64
2023/08/10 10:10:13;;;;;;;0.30;0.20;;;29.40;38.80;;;;;;6124889;23;20018;-64
2023/08/10 10:12:40;;;;;;;0.38;0.30;;;30.80;35.70;;;;;;6125880;23;20084;-64
2023/08/10 10:15:07;;;;;;;0.30;0.30;;;31.00;35.70;;;;;;6099045;23;20026;-64
2023/08/10 10:17:33;;;;;;;0.20;0.20;;;31.40;35.20;;;;;;6125205;23;20435;-64
2023/08/10 10:20:00;;;;;;;0.93;0.80;;;31.50;34.90;;;;;;6099244;23;20045;-64
2023/08/10 10:22:26;;;;;;;0.60;0.60;;;31.50;34.60;;;;;;6099053;23;20331;-63
2023/08/10 10:24:52;;;;;;;0.20;0.20;;;31.60;34.00;;;;;;6124840;23;20010;-65
2023/08/10 10:27:19;;;;;;;0.73;0.70;;;31.50;33.80;;;;;;6125113;23;20360;-64
2023/08/10 10:30:12;;;;;;;0.30;0.20;;;31.50;33.40;;;;;;6127100;23;20084;-65
2023/08/10 10:32:46;;;;;;;0.63;0.43;;;31.30;34.10;;;;;;6127611;23;20014;-65
2023/08/10 10:35:33;;;;;;;0.32;0.30;;;31.20;34.60;;;;;;6100472;23;20073;-65
2023/08/10 10:38:00;;;;;;;0.40;0.40;;;31.00;35.30;;;;;;6127341;23;20040;-64
2023/08/10 10:40:27;;;;;;;0.65;0.52;;;31.00;35.30;;;;;;6100688;23;20016;-64
2023/08/10 10:43:14;;;;;;;0.40;0.40;;;31.00;34.80;;;;;;6100692;23;20049;-64
2023/08/10 10:45:44;;;;;;;0.28;0.28;;;31.20;34.50;;;;;;6126495;23;20010;-64
2023/08/10 10:48:11;;;;;;;0.25;0.25;;;31.30;34.30;;;;;;6076970;23;20096;-64
2023/08/10 10:50:37;;;;;;;0.30;0.30;;;31.20;34.40;;;;;;6126458;23;20010;-64
2023/08/10 10:53:22;;;;;;;0.65;0.50;;;31.10;34.30;;;;;;6126774;23;20013;-65
2023/08/10 10:55:53;;;;;;;0.28;0.28;;;30.90;34.00;;;;;;6100320;23;20014;-64
2023/08/10 10:58:19;;;;;;;0.28;0.28;;;30.90;34.00;;;;;;6101191;23;20014;-64
2023/08/10 11:00:46;;;;;;;0.30;0.30;;;30.90;34.60;;;;;;6126363;23;20097;-65
2023/08/10 11:03:13;;;;;;;0.20;0.20;;;30.90;34.60;;;;;;6126815;23;20010;-64
2023/08/10 11:05:39;;;;;;;0.75;0.50;;;30.90;33.80;;;;;;6126078;23;20085;-64
2023/08/10 11:08:06;;;;;;;0.20;0.20;;;31.00;34.50;;;;;;6076846;23;20502;-63
2023/08/10 11:10:51;;;;;;;0.30;0.30;;;31.00;34.10;;;;;;6126420;23;20313;-65
2023/08/10 11:13:18;;;;;;;0.85;0.70;;;31.20;33.70;;;;;;6126697;23;20018;-65
2023/08/10 11:15:47;;;;;;;0.63;0.40;;;31.50;33.70;;;;;;6126084;23;20085;-65
2023/08/10 11:18:14;;;;;;;0.32;0.32;;;31.50;33.50;;;;;;6101091;23;20038;-64
2023/08/10 11:20:58;;;;;;;0.43;0.43;;;31.80;33.50;;;;;;6126016;23;20504;-64
2023/08/10 11:23:25;;;;;;;0.30;0.30;;;32.30;33.00;;;;;;6126613;23;20014;-65
2023/08/10 11:25:51;;;;;;;0.30;0.30;;;32.40;32.20;;;;;;6099643;23;20014;-65
2023/08/10 11:28:20;;;;;;;0.68;0.68;;;32.30;32.20;;;;;;6126741;23;20022;-65
2023/08/10 11:30:47;;;;;;;0.30;0.30;;;32.50;30.90;;;;;;6100248;23;20038;-65
2023/08/10 11:33:15;;;;;;;0.63;0.50;;;33.10;31.10;;;;;;6126508;23;20013;-64
2023/08/10 11:35:50;;;;;;;0.20;0.20;;;34.30;28.80;;;;;;6075939;23;20428;-65
2023/08/10 11:38:16;;;;;;;2.90;0.67;;;35.70;27.70;;;;;;6100758;23;20065;-67
2023/08/10 11:40:43;;;;;;;0.30;0.30;;;37.60;25.80;;;;;;6099751;23;20014;-67
2023/08/10 11:43:11;;;;;;;0.30;0.30;;;39.10;24.70;;;;;;6126376;23;20352;-66
2023/08/10 11:45:39;;;;;;;0.30;0.30;;;40.10;23.00;;;;;;6100242;23;20060;-67
2023/08/10 11:48:26;;;;;;;0.43;0.43;;;41.00;22.30;;;;;;6100717;23;20045;-68
2023/08/10 11:51:00;;;;;;;0.38;0.38;;;42.20;21.90;;;;;;6100580;23;20006;-67
2023/08/10 11:56:20;;;;;;;0.80;0.80;;;41.70;20.20;;;;;;6103908;23;20089;-66
2023/08/10 11:58:46;;;;;;;0.90;0.90;;;39.70;22.40;;;;;;6100916;23;20018;-67
2023/08/10 12:01:16;;;;;;;0.80;0.80;;;38.20;23.70;;;;;;6125888;23;20420;-67
2023/08/10 12:03:51;;;;;;;0.63;0.63;;;38.20;24.40;;;;;;6126158;23;20045;-67
2023/08/10 12:06:18;;;;;;;1.08;0.82;;;38.80;23.50;;;;;;6125889;23;20010;-66
2023/08/10 12:08:44;;;;;;;1.10;1.00;;;37.90;24.00;;;;;;6126280;23;20117;-67
2023/08/10 12:11:13;;;;;;;0.50;0.45;;;36.90;24.70;;;;;;6125791;23;20368;-66
2023/08/10 12:14:01;;;;;;;0.30;0.30;;;36.30;25.80;;;;;;6100059;23;20021;-68
2023/08/10 12:16:27;;;;;;;0.65;0.57;;;39.30;23.60;;;;;;6125762;23;20014;-67
2023/08/10 12:18:53;;;;;;;1.63;0.73;;;41.50;21.30;;;;;;6100512;23;20038;-68
2023/08/10 12:21:19;;;;;;;0.57;0.57;;;43.00;20.00;;;;;;6125546;23;20018;-67
2023/08/10 12:23:45;;;;;;;0.60;0.60;;;44.10;19.10;;;;;;6100115;23;20018;-68
2023/08/10 12:26:11;;;;;;;0.77;0.77;;;44.90;17.20;;;;;;6125365;23;20435;-67
2023/08/10 12:28:37;;;;;;;0.60;0.60;;;45.60;16.70;;;;;;6126126;23;20010;-66
2023/08/10 12:31:24;;;;;;;3.42;1.05;;;46.60;16.60;;;;;;6099752;23;20037;-67
2023/08/10 12:33:55;;;;;;;0.93;0.70;;;47.40;15.50;;;;;;6125737;23;20014;-68
2023/08/10 12:36:21;;;;;;;0.73;0.73;;;48.00;14.80;;;;;;6125450;23;20041;-67
2023/08/10 12:38:47;;;;;;;0.60;0.60;;;47.30;13.00;;;;;;6100103;23;20085;-67
2023/08/10 12:41:13;;;;;;;0.98;0.90;;;47.20;14.40;;;;;;6075528;23;20013;-68
2023/08/10 12:43:40;;;;;;;1.40;1.23;;;48.00;14.30;;;;;;6125678;23;20061;-67
2023/08/10 12:46:06;;;;;;;0.80;0.80;;;48.90;13.20;;;;;;6125446;23;20017;-67
2023/08/10 12:48:32;;;;;;;1.23;1.05;;;49.70;13.00;;;;;;6099980;23;20081;-68
2023/08/10 12:50:59;;;;;;;1.30;1.20;;;50.20;13.30;;;;;;6125203;23;20336;-67
2023/08/10 12:53:25;;;;;;;1.25;1.15;;;51.00;12.40;;;;;;6099911;23;20021;-68
2023/08/10 12:55:52;;;;;;;1.27;1.17;;;51.50;12.70;;;;;;6125030;23;20130;-68
2023/08/10 12:58:18;;;;;;;1.00;1.00;;;51.80;10.50;;;;;;6099890;23;20014;-67
2023/08/10 13:00:45;;;;;;;1.00;0.98;;;51.40;12.40;;;;;;6099436;23;20043;-68